createdAt,value
2019-02-02T00:00:02.712Z,73.40
2019-02-02T00:00:41.746Z,73.30
2019-02-02T00:01:17.911Z,73.30
2019-02-02T00:01:52.680Z,73.40
2019-02-02T00:02:27.197Z,73.20
2019-02-02T00:03:01.691Z,73.30
2019-02-02T00:03:36.376Z,73.70
2019-02-02T00:04:11.042Z,73.90
2019-02-02T00:04:45.556Z,74.20
2019-02-02T00:05:20.063Z,74.20
2019-02-02T00:05:54.640Z,74.00
2019-02-02T00:06:29.146Z,73.70
2019-02-02T00:07:03.915Z,73.50
2019-02-02T00:07:38.420Z,73.40
2019-02-02T00:08:12.921Z,73.30
2019-02-02T00:08:47.499Z,73.10
2019-02-02T00:09:22.752Z,73.00
2019-02-02T00:09:58.058Z,73.10
2019-02-02T00:10:32.806Z,73.00
2019-02-02T00:11:07.613Z,73.00
2019-02-02T00:11:42.120Z,72.90
2019-02-02T00:12:16.700Z,72.50
2019-02-02T00:12:51.377Z,73.00
2019-02-02T00:13:25.898Z,73.00
2019-02-02T00:14:00.506Z,73.00
2019-02-02T00:14:35.026Z,73.10
2019-02-02T00:15:11.199Z,73.10
2019-02-02T00:15:45.719Z,73.10
2019-02-02T00:16:20.543Z,73.00
2019-02-02T00:16:55.265Z,73.10
2019-02-02T00:17:29.948Z,73.00
2019-02-02T00:18:05.386Z,73.00
2019-02-02T00:18:39.913Z,73.20
2019-02-02T00:19:14.420Z,73.30
2019-02-02T00:19:48.921Z,73.30
2019-02-02T00:20:23.443Z,73.30
2019-02-02T00:20:58.030Z,73.40
2019-02-02T00:21:32.559Z,73.50
2019-02-02T00:22:07.360Z,73.40
2019-02-02T00:22:41.869Z,73.20
2019-02-02T00:23:16.372Z,73.30
2019-02-02T00:23:50.919Z,73.40
2019-02-02T00:24:25.542Z,73.50
2019-02-02T00:25:00.093Z,73.30
2019-02-02T00:25:34.753Z,72.90
2019-02-02T00:26:09.373Z,72.90
2019-02-02T00:26:43.973Z,72.90
2019-02-02T00:27:18.661Z,72.80
2019-02-02T00:27:53.173Z,73.40
2019-02-02T00:28:27.681Z,72.60
2019-02-02T00:29:02.225Z,72.70
2019-02-02T00:29:36.859Z,72.80
2019-02-02T00:30:18.432Z,73.10
2019-02-02T00:30:53.048Z,72.50
2019-02-02T00:31:27.726Z,72.60
2019-02-02T00:32:02.290Z,72.60
2019-02-02T00:32:36.792Z,72.30
2019-02-02T00:33:11.301Z,72.30
2019-02-02T00:33:45.908Z,72.30
2019-02-02T00:34:20.472Z,72.50
2019-02-02T00:34:54.989Z,73.30
2019-02-02T00:35:29.581Z,72.90
2019-02-02T00:36:04.293Z,72.60
2019-02-02T00:36:38.868Z,72.80
2019-02-02T00:37:13.402Z,73.10
2019-02-02T00:37:47.965Z,73.00
2019-02-02T00:38:22.492Z,73.10
2019-02-02T00:38:57.343Z,73.70
2019-02-02T00:39:31.904Z,73.70
2019-02-02T00:40:12.056Z,72.90
2019-02-02T00:40:46.649Z,72.90
2019-02-02T00:41:21.181Z,72.60
2019-02-02T00:41:55.739Z,72.40
2019-02-02T00:42:30.325Z,72.50
2019-02-02T00:43:05.752Z,72.60
2019-02-02T00:43:40.425Z,72.60
2019-02-02T00:44:15.164Z,72.70
2019-02-02T00:44:49.681Z,72.60
2019-02-02T00:45:24.210Z,72.60
2019-02-02T00:45:58.722Z,72.60
2019-02-02T00:46:33.234Z,72.50
2019-02-02T00:47:07.756Z,72.50
2019-02-02T00:47:42.563Z,72.50
2019-02-02T00:48:17.146Z,72.70
2019-02-02T00:48:51.666Z,72.60
2019-02-02T00:49:26.164Z,72.40
2019-02-02T00:50:00.688Z,72.40
2019-02-02T00:50:35.352Z,72.30
2019-02-02T00:51:09.854Z,72.00
2019-02-02T00:51:44.442Z,72.10
2019-02-02T00:52:18.943Z,72.20
2019-02-02T00:52:53.514Z,72.30
2019-02-02T00:53:28.181Z,72.20
2019-02-02T00:54:02.923Z,72.30
2019-02-02T00:54:37.563Z,72.30
2019-02-02T00:55:19.047Z,72.20
2019-02-02T00:55:53.613Z,72.20
2019-02-02T00:56:28.107Z,71.80
2019-02-02T00:57:02.613Z,71.90
2019-02-02T00:57:37.158Z,71.40
2019-02-02T00:58:11.729Z,71.10
2019-02-02T00:58:46.238Z,71.10
2019-02-02T00:59:20.766Z,71.10
2019-02-02T00:59:55.297Z,71.00
2019-02-02T01:00:30.114Z,71.10
2019-02-02T01:01:05.569Z,71.00
2019-02-02T01:01:40.088Z,70.90
2019-02-02T01:02:14.783Z,70.80
2019-02-02T01:02:49.519Z,70.90
2019-02-02T01:03:24.032Z,70.80
2019-02-02T01:03:58.545Z,70.70
2019-02-02T01:04:33.084Z,70.50
2019-02-02T01:05:10.843Z,70.40
2019-02-02T01:05:45.488Z,70.50
2019-02-02T01:06:20.113Z,70.50
2019-02-02T01:06:54.706Z,70.60
2019-02-02T01:07:29.335Z,70.70
2019-02-02T01:08:04.300Z,70.80
2019-02-02T01:08:39.591Z,71.60
2019-02-02T01:09:16.153Z,71.00
2019-02-02T01:09:51.019Z,71.00
2019-02-02T01:10:34.348Z,70.90
2019-02-02T01:11:09.005Z,71.00
2019-02-02T01:11:43.507Z,70.60
2019-02-02T01:12:18.214Z,71.20
2019-02-02T01:12:52.977Z,71.30
2019-02-02T01:13:27.487Z,71.40
2019-02-02T01:14:02.050Z,71.30
2019-02-02T01:14:36.588Z,71.40
2019-02-02T01:15:12.960Z,71.50
2019-02-02T01:15:47.490Z,71.30
2019-02-02T01:16:22.134Z,71.20
2019-02-02T01:16:57.307Z,71.10
2019-02-02T01:17:31.874Z,71.20
2019-02-02T01:18:06.728Z,71.30
2019-02-02T01:18:41.235Z,71.20
2019-02-02T01:19:16.308Z,71.00
2019-02-02T01:19:50.813Z,70.90
2019-02-02T01:20:25.422Z,70.90
2019-02-02T01:20:59.998Z,70.90
2019-02-02T01:21:34.570Z,71.10
2019-02-02T01:22:09.151Z,70.80
2019-02-02T01:22:44.121Z,70.80
2019-02-02T01:23:18.716Z,70.80
2019-02-02T01:23:53.230Z,70.80
2019-02-02T01:24:27.802Z,70.70
2019-02-02T01:25:02.391Z,70.80
2019-02-02T01:25:36.995Z,70.70
2019-02-02T01:26:11.648Z,70.60
2019-02-02T01:26:46.176Z,70.40
2019-02-02T01:27:20.757Z,70.50
2019-02-02T01:28:04.946Z,70.40
2019-02-02T01:28:32.287Z,70.40
2019-02-02T01:29:06.788Z,70.30
2019-02-02T01:29:41.400Z,70.40
2019-02-02T01:30:18.685Z,70.40
2019-02-02T01:30:53.321Z,70.30
2019-02-02T01:31:27.880Z,70.30
2019-02-02T01:32:02.409Z,70.10
2019-02-02T01:32:36.914Z,70.10
2019-02-02T01:33:11.513Z,70.10
2019-02-02T01:33:46.344Z,69.90
2019-02-02T01:34:20.884Z,69.80
2019-02-02T01:34:55.494Z,69.70
2019-02-02T01:35:30.179Z,69.40
2019-02-02T01:36:04.950Z,69.20
2019-02-02T01:36:39.554Z,69.30
2019-02-02T01:37:14.313Z,69.00
2019-02-02T01:37:48.841Z,68.80
2019-02-02T01:38:23.384Z,68.90
2019-02-02T01:38:57.985Z,68.90
2019-02-02T01:39:33.396Z,68.90
2019-02-02T01:40:11.564Z,68.80
2019-02-02T01:40:46.072Z,68.80
2019-02-02T01:41:20.660Z,68.50
2019-02-02T01:41:55.155Z,68.20
2019-02-02T01:42:29.668Z,68.10
2019-02-02T01:43:04.731Z,68.00
2019-02-02T01:43:39.317Z,68.00
2019-02-02T01:44:13.913Z,68.10
2019-02-02T01:44:48.423Z,68.10
2019-02-02T01:45:27.729Z,68.00
2019-02-02T01:46:02.261Z,67.80
2019-02-02T01:46:36.839Z,67.70
2019-02-02T01:47:11.340Z,67.70
2019-02-02T01:47:45.987Z,67.70
2019-02-02T01:48:20.505Z,67.70
2019-02-02T01:48:55.482Z,68.30
2019-02-02T01:49:30.003Z,67.80
2019-02-02T01:50:07.323Z,67.80
2019-02-02T01:50:41.824Z,67.80
2019-02-02T01:51:16.341Z,67.80
2019-02-02T01:51:50.920Z,67.90
2019-02-02T01:52:25.450Z,67.90
2019-02-02T01:53:00.032Z,67.90
2019-02-02T01:53:34.537Z,67.80
2019-02-02T01:54:09.123Z,67.80
2019-02-02T01:54:43.698Z,67.80
2019-02-02T01:55:19.076Z,67.80
2019-02-02T01:55:53.658Z,67.70
2019-02-02T01:56:28.220Z,67.70
2019-02-02T01:57:03.037Z,68.20
2019-02-02T01:57:37.682Z,67.50
2019-02-02T01:58:17.014Z,67.50
2019-02-02T01:58:48.501Z,67.60
2019-02-02T01:59:23.081Z,67.60
2019-02-02T01:59:57.667Z,67.60
2019-02-02T02:00:35.961Z,67.60
2019-02-02T02:01:10.624Z,67.50
2019-02-02T02:01:45.140Z,67.30
2019-02-02T02:02:25.393Z,67.60
2019-02-02T02:03:00.140Z,67.70
2019-02-02T02:03:34.647Z,67.80
2019-02-02T02:04:09.212Z,67.90
2019-02-02T02:04:43.771Z,67.90
2019-02-02T02:05:18.437Z,67.80
2019-02-02T02:05:52.972Z,67.80
2019-02-02T02:06:27.625Z,67.80
2019-02-02T02:07:02.208Z,67.70
2019-02-02T02:07:36.799Z,67.80
2019-02-02T02:08:11.575Z,67.80
2019-02-02T02:08:46.388Z,67.60
2019-02-02T02:09:20.963Z,67.70
2019-02-02T02:09:55.553Z,67.80
2019-02-02T02:10:30.106Z,67.70
2019-02-02T02:11:05.105Z,67.70
2019-02-02T02:11:39.640Z,67.70
2019-02-02T02:12:14.440Z,67.80
2019-02-02T02:12:50.158Z,67.80
2019-02-02T02:13:24.752Z,67.80
2019-02-02T02:13:59.373Z,67.90
2019-02-02T02:14:34.241Z,68.60
2019-02-02T02:15:14.546Z,68.00
2019-02-02T02:15:52.310Z,68.00
2019-02-02T02:16:26.857Z,68.00
2019-02-02T02:17:01.433Z,68.20
2019-02-02T02:17:35.972Z,68.30
2019-02-02T02:18:10.829Z,68.30
2019-02-02T02:18:45.682Z,68.40
2019-02-02T02:19:20.563Z,68.40
2019-02-02T02:19:55.136Z,68.40
2019-02-02T02:20:29.695Z,68.30
2019-02-02T02:21:04.289Z,68.50
2019-02-02T02:21:38.983Z,68.60
2019-02-02T02:22:13.591Z,68.70
2019-02-02T02:22:49.564Z,68.70
2019-02-02T02:23:24.139Z,68.70
2019-02-02T02:23:58.645Z,68.70
2019-02-02T02:24:33.167Z,68.70
2019-02-02T02:25:10.618Z,68.70
2019-02-02T02:25:45.216Z,68.70
2019-02-02T02:26:20.558Z,68.60
2019-02-02T02:26:55.206Z,68.50
2019-02-02T02:27:29.706Z,68.50
2019-02-02T02:28:04.341Z,68.50
2019-02-02T02:28:38.942Z,68.50
2019-02-02T02:29:13.581Z,68.40
2019-02-02T02:29:48.144Z,68.50
2019-02-02T02:30:25.996Z,68.40
2019-02-02T02:31:00.564Z,68.40
2019-02-02T02:31:35.596Z,68.30
2019-02-02T02:32:10.112Z,68.30
2019-02-02T02:32:44.951Z,68.30
2019-02-02T02:33:19.552Z,68.40
2019-02-02T02:34:03.412Z,68.30
2019-02-02T02:34:37.969Z,68.30
2019-02-02T02:35:12.771Z,68.20
2019-02-02T02:35:48.088Z,68.20
2019-02-02T02:36:22.665Z,68.30
2019-02-02T02:36:57.580Z,68.20
2019-02-02T02:37:32.163Z,68.30
2019-02-02T02:38:06.657Z,68.30
2019-02-02T02:38:41.208Z,68.40
2019-02-02T02:39:15.722Z,68.40
2019-02-02T02:39:50.301Z,68.40
2019-02-02T02:40:25.184Z,68.30
2019-02-02T02:40:59.774Z,68.30
2019-02-02T02:41:34.428Z,68.20
2019-02-02T02:42:08.944Z,68.20
2019-02-02T02:42:43.499Z,68.20
2019-02-02T02:43:19.088Z,68.20
2019-02-02T02:43:53.597Z,68.30
2019-02-02T02:44:28.180Z,68.10
2019-02-02T02:45:02.692Z,68.30
2019-02-02T02:45:38.990Z,68.40
2019-02-02T02:46:13.712Z,68.50
2019-02-02T02:46:48.364Z,68.40
2019-02-02T02:47:23.222Z,68.50
2019-02-02T02:47:57.724Z,68.40
2019-02-02T02:48:32.354Z,68.40
2019-02-02T02:49:06.949Z,68.40
2019-02-02T02:49:41.651Z,68.30
2019-02-02T02:50:18.268Z,68.30
2019-02-02T02:50:52.901Z,68.30
2019-02-02T02:51:27.487Z,68.20
2019-02-02T02:52:02.008Z,68.30
2019-02-02T02:52:38.185Z,68.10
2019-02-02T02:53:13.070Z,68.20
2019-02-02T02:53:48.391Z,68.00
2019-02-02T02:54:22.902Z,68.00
2019-02-02T02:54:57.467Z,68.00
2019-02-02T02:55:31.962Z,68.10
2019-02-02T02:56:07.480Z,68.00
2019-02-02T02:56:41.987Z,68.00
2019-02-02T02:57:16.885Z,68.10
2019-02-02T02:57:51.393Z,68.10
2019-02-02T02:58:25.925Z,68.30
2019-02-02T02:59:00.436Z,68.40
2019-02-02T02:59:34.946Z,68.50
2019-02-02T03:00:17.784Z,69.20
2019-02-02T03:00:52.303Z,68.60
2019-02-02T03:01:26.876Z,68.50
2019-02-02T03:02:01.563Z,69.20
2019-02-02T03:02:36.388Z,68.80
2019-02-02T03:03:10.911Z,69.00
2019-02-02T03:03:45.469Z,69.10
2019-02-02T03:04:19.966Z,69.20
2019-02-02T03:04:55.902Z,69.10
2019-02-02T03:05:30.444Z,69.10
2019-02-02T03:06:05.201Z,69.10
2019-02-02T03:06:39.803Z,69.00
2019-02-02T03:07:14.326Z,69.00
2019-02-02T03:07:50.175Z,69.10
2019-02-02T03:08:24.745Z,69.20
2019-02-02T03:08:59.255Z,69.30
2019-02-02T03:09:33.767Z,69.30
2019-02-02T03:10:14.386Z,69.30
2019-02-02T03:10:49.237Z,69.10
2019-02-02T03:11:23.847Z,69.20
2019-02-02T03:11:58.806Z,69.10
2019-02-02T03:12:34.293Z,69.10
2019-02-02T03:13:08.863Z,69.20
2019-02-02T03:13:43.358Z,69.10
2019-02-02T03:14:17.980Z,69.20
2019-02-02T03:14:52.557Z,69.20
2019-02-02T03:15:27.323Z,69.30
2019-02-02T03:16:01.861Z,69.30
2019-02-02T03:16:36.461Z,69.20
2019-02-02T03:17:11.181Z,69.20
2019-02-02T03:17:46.425Z,69.20
2019-02-02T03:18:21.009Z,69.20
2019-02-02T03:18:55.529Z,69.20
2019-02-02T03:19:30.112Z,69.20
2019-02-02T03:20:07.547Z,69.30
2019-02-02T03:20:42.188Z,69.30
2019-02-02T03:21:16.754Z,69.30
2019-02-02T03:21:51.335Z,69.30
2019-02-02T03:22:25.851Z,69.20
2019-02-02T03:23:00.383Z,69.30
2019-02-02T03:23:35.042Z,69.20
2019-02-02T03:24:09.711Z,69.20
2019-02-02T03:24:44.297Z,69.20
2019-02-02T03:25:24.749Z,69.20
2019-02-02T03:25:59.284Z,69.20
2019-02-02T03:26:33.829Z,69.30
2019-02-02T03:27:08.340Z,69.40
2019-02-02T03:27:42.918Z,70.00
2019-02-02T03:28:17.446Z,69.30
2019-02-02T03:28:53.702Z,70.00
2019-02-02T03:29:28.464Z,69.30
2019-02-02T03:30:03.134Z,69.30
2019-02-02T03:30:57.034Z,69.30
2019-02-02T03:31:32.072Z,69.30
2019-02-02T03:32:06.658Z,69.20
2019-02-02T03:32:41.229Z,69.20
2019-02-02T03:33:15.817Z,69.10
2019-02-02T03:33:50.403Z,68.90
2019-02-02T03:34:24.957Z,68.70
2019-02-02T03:34:59.529Z,68.70
2019-02-02T03:35:34.087Z,68.60
2019-02-02T03:36:08.677Z,68.80
2019-02-02T03:36:43.178Z,68.60
2019-02-02T03:37:17.679Z,68.60
2019-02-02T03:37:52.858Z,68.50
2019-02-02T03:38:27.420Z,68.40
2019-02-02T03:39:01.941Z,68.30
2019-02-02T03:39:36.459Z,68.20
2019-02-02T03:40:13.708Z,68.80
2019-02-02T03:40:48.263Z,68.10
2019-02-02T03:41:22.850Z,68.00
2019-02-02T03:41:57.372Z,68.00
2019-02-02T03:42:32.005Z,67.90
2019-02-02T03:43:06.567Z,68.00
2019-02-02T03:43:41.124Z,68.20
2019-02-02T03:44:15.705Z,68.30
2019-02-02T03:44:50.286Z,68.20
2019-02-02T03:45:24.872Z,68.20
2019-02-02T03:45:59.453Z,68.30
2019-02-02T03:46:33.945Z,68.30
2019-02-02T03:47:08.445Z,68.30
2019-02-02T03:47:43.013Z,68.40
2019-02-02T03:48:17.580Z,68.40
2019-02-02T03:48:52.185Z,68.40
2019-02-02T03:49:26.760Z,68.50
2019-02-02T03:50:01.577Z,68.50
2019-02-02T03:50:36.200Z,68.40
2019-02-02T03:51:10.712Z,69.00
2019-02-02T03:51:45.330Z,68.30
2019-02-02T03:52:19.908Z,68.30
2019-02-02T03:52:54.479Z,68.40
2019-02-02T03:53:29.057Z,68.50
2019-02-02T03:54:09.021Z,68.50
2019-02-02T03:54:40.276Z,68.50
2019-02-02T03:55:16.392Z,68.50
2019-02-02T03:55:50.898Z,68.60
2019-02-02T03:56:25.780Z,68.60
2019-02-02T03:57:00.297Z,68.60
2019-02-02T03:57:35.134Z,68.60
2019-02-02T03:58:09.704Z,68.80
2019-02-02T03:58:44.383Z,68.80
2019-02-02T03:59:18.961Z,69.50
2019-02-02T03:59:53.464Z,68.90
2019-02-02T04:00:27.969Z,68.90
2019-02-02T04:01:02.481Z,69.00
2019-02-02T04:01:36.989Z,69.10
2019-02-02T04:02:11.559Z,69.10
2019-02-02T04:02:46.455Z,69.20
2019-02-02T04:03:21.431Z,69.20
2019-02-02T04:03:55.948Z,69.20
2019-02-02T04:04:30.533Z,69.30
2019-02-02T04:05:08.055Z,69.30
2019-02-02T04:05:42.564Z,69.40
2019-02-02T04:06:17.625Z,69.60
2019-02-02T04:06:52.152Z,69.60
2019-02-02T04:07:26.691Z,69.80
2019-02-02T04:08:01.263Z,70.00
2019-02-02T04:08:35.772Z,70.20
2019-02-02T04:09:10.365Z,70.50
2019-02-02T04:09:44.878Z,70.70
2019-02-02T04:10:19.635Z,70.70
2019-02-02T04:10:54.174Z,70.80
2019-02-02T04:11:28.813Z,70.80
2019-02-02T04:12:03.561Z,70.80
2019-02-02T04:12:38.273Z,70.90
2019-02-02T04:13:12.840Z,71.00
2019-02-02T04:13:47.341Z,71.00
2019-02-02T04:14:21.845Z,71.10
2019-02-02T04:14:56.357Z,71.10
2019-02-02T04:15:30.992Z,71.20
2019-02-02T04:16:05.561Z,71.40
2019-02-02T04:16:40.484Z,71.40
2019-02-02T04:17:15.052Z,71.50
2019-02-02T04:17:49.722Z,71.50
2019-02-02T04:18:24.304Z,71.50
2019-02-02T04:18:58.879Z,71.50
2019-02-02T04:19:33.452Z,71.50
2019-02-02T04:20:11.170Z,71.50
2019-02-02T04:20:45.751Z,71.50
2019-02-02T04:21:20.461Z,71.50
2019-02-02T04:21:54.983Z,71.20
2019-02-02T04:22:29.491Z,71.90
2019-02-02T04:23:04.284Z,72.10
2019-02-02T04:23:38.859Z,72.00
2019-02-02T04:24:13.416Z,72.10
2019-02-02T04:24:47.927Z,72.10
2019-02-02T04:25:23.368Z,72.30
2019-02-02T04:25:59.133Z,72.30
2019-02-02T04:26:33.716Z,72.40
2019-02-02T04:27:08.492Z,72.40
2019-02-02T04:27:43.087Z,72.30
2019-02-02T04:28:17.647Z,72.30
2019-02-02T04:28:52.342Z,72.30
2019-02-02T04:29:26.985Z,72.40
2019-02-02T04:30:01.656Z,72.40
2019-02-02T04:30:38.097Z,72.40
2019-02-02T04:31:13.251Z,72.50
2019-02-02T04:31:48.369Z,72.40
2019-02-02T04:32:22.960Z,72.30
2019-02-02T04:32:57.621Z,72.30
2019-02-02T04:33:32.226Z,72.30
2019-02-02T04:34:06.784Z,72.30
2019-02-02T04:34:41.345Z,72.30
2019-02-02T04:35:16.007Z,72.30
2019-02-02T04:35:50.855Z,72.30
2019-02-02T04:36:25.385Z,72.30
2019-02-02T04:36:59.961Z,72.30
2019-02-02T04:37:34.467Z,72.30
2019-02-02T04:38:08.985Z,72.30
2019-02-02T04:38:43.496Z,72.40
2019-02-02T04:39:18.013Z,72.40
2019-02-02T04:39:52.527Z,72.40
2019-02-02T04:40:27.067Z,72.50
2019-02-02T04:41:01.636Z,72.60
2019-02-02T04:41:36.243Z,72.70
2019-02-02T04:42:10.753Z,72.70
2019-02-02T04:42:45.679Z,72.90
2019-02-02T04:43:20.236Z,73.00
2019-02-02T04:43:54.781Z,73.10
2019-02-02T04:44:29.292Z,73.20
2019-02-02T04:45:04.671Z,73.20
2019-02-02T04:45:39.205Z,73.40
2019-02-02T04:46:13.839Z,73.80
2019-02-02T04:46:48.406Z,73.60
2019-02-02T04:47:23.050Z,73.70
2019-02-02T04:47:57.641Z,73.90
2019-02-02T04:48:32.665Z,74.70
2019-02-02T04:49:07.269Z,74.20
2019-02-02T04:49:41.783Z,74.60
2019-02-02T04:50:21.253Z,74.80
2019-02-02T04:50:55.911Z,75.00
2019-02-02T04:51:30.509Z,75.10
2019-02-02T04:52:05.019Z,75.30
2019-02-02T04:52:39.648Z,75.50
2019-02-02T04:53:14.189Z,75.60
2019-02-02T04:53:48.839Z,75.70
2019-02-02T04:54:23.397Z,75.80
2019-02-02T04:54:57.918Z,75.90
2019-02-02T04:55:32.416Z,76.40
2019-02-02T04:56:06.967Z,76.50
2019-02-02T04:56:41.531Z,76.50
2019-02-02T04:57:16.066Z,76.90
2019-02-02T04:57:50.660Z,77.20
2019-02-02T04:58:25.270Z,77.10
2019-02-02T04:58:59.901Z,77.10
2019-02-02T04:59:34.735Z,77.90
2019-02-02T05:00:12.413Z,77.10
2019-02-02T05:00:46.936Z,77.00
2019-02-02T05:01:21.515Z,76.90
2019-02-02T05:01:56.102Z,76.80
2019-02-02T05:02:30.684Z,76.80
2019-02-02T05:03:05.312Z,76.90
2019-02-02T05:03:39.840Z,76.80
2019-02-02T05:04:14.389Z,76.90
2019-02-02T05:04:48.947Z,77.20
2019-02-02T05:05:23.537Z,77.50
2019-02-02T05:05:58.104Z,77.60
2019-02-02T05:06:32.629Z,77.60
2019-02-02T05:07:07.192Z,77.70
2019-02-02T05:07:41.698Z,77.80
2019-02-02T05:08:16.238Z,78.00
2019-02-02T05:08:50.795Z,78.00
2019-02-02T05:09:25.366Z,78.20
2019-02-02T05:09:59.908Z,78.30
2019-02-02T05:10:34.448Z,78.40
2019-02-02T05:11:08.953Z,78.70
2019-02-02T05:11:43.514Z,78.80
2019-02-02T05:12:18.155Z,79.70
2019-02-02T05:12:53.180Z,79.00
2019-02-02T05:13:27.677Z,79.10
2019-02-02T05:14:02.202Z,79.20
2019-02-02T05:14:36.752Z,79.20
2019-02-02T05:15:11.957Z,79.10
2019-02-02T05:15:47.856Z,79.10
2019-02-02T05:16:23.508Z,79.30
2019-02-02T05:16:58.005Z,79.40
2019-02-02T05:17:32.512Z,79.50
2019-02-02T05:18:07.019Z,79.50
2019-02-02T05:18:41.535Z,79.70
2019-02-02T05:19:16.039Z,79.80
2019-02-02T05:19:50.559Z,80.00
2019-02-02T05:20:25.224Z,80.10
2019-02-02T05:20:59.721Z,80.10
2019-02-02T05:21:34.231Z,80.20
2019-02-02T05:22:08.773Z,80.20
2019-02-02T05:22:44.198Z,80.40
2019-02-02T05:23:18.716Z,80.40
2019-02-02T05:23:53.373Z,80.40
2019-02-02T05:24:27.886Z,80.50
2019-02-02T05:25:02.395Z,80.60
2019-02-02T05:25:36.899Z,80.70
2019-02-02T05:26:11.508Z,80.70
2019-02-02T05:26:47.708Z,80.70
2019-02-02T05:27:22.378Z,80.80
2019-02-02T05:27:56.915Z,80.90
2019-02-02T05:28:31.491Z,81.10
2019-02-02T05:29:06.050Z,81.20
2019-02-02T05:29:41.751Z,81.10
2019-02-02T05:30:23.060Z,81.20
2019-02-02T05:30:58.008Z,81.30
2019-02-02T05:31:32.510Z,81.30
2019-02-02T05:32:07.005Z,81.00
2019-02-02T05:32:41.834Z,80.90
2019-02-02T05:33:16.359Z,80.90
2019-02-02T05:33:53.663Z,80.80
2019-02-02T05:34:27.212Z,80.80
2019-02-02T05:35:01.722Z,80.50
2019-02-02T05:35:36.298Z,80.40
2019-02-02T05:36:10.846Z,80.50
2019-02-02T05:36:45.425Z,80.60
2019-02-02T05:37:20.454Z,80.60
2019-02-02T05:37:55.151Z,80.70
2019-02-02T05:38:30.955Z,80.60
2019-02-02T05:39:07.682Z,80.60
2019-02-02T05:39:42.167Z,80.80
2019-02-02T05:40:21.630Z,80.80
2019-02-02T05:40:56.132Z,80.90
2019-02-02T05:41:30.633Z,80.90
2019-02-02T05:42:05.563Z,80.90
2019-02-02T05:42:40.074Z,80.90
2019-02-02T05:43:14.614Z,81.00
2019-02-02T05:43:49.172Z,81.00
2019-02-02T05:44:23.753Z,81.00
2019-02-02T05:44:58.452Z,81.00
2019-02-02T05:45:33.039Z,80.40
2019-02-02T05:46:07.613Z,81.10
2019-02-02T05:46:42.310Z,81.10
2019-02-02T05:47:18.392Z,81.10
2019-02-02T05:47:52.916Z,81.10
2019-02-02T05:48:27.493Z,81.10
2019-02-02T05:49:02.016Z,81.20
2019-02-02T05:49:36.932Z,81.30
2019-02-02T05:50:14.579Z,81.40
2019-02-02T05:50:49.184Z,81.70
2019-02-02T05:51:23.867Z,81.90
2019-02-02T05:51:58.539Z,82.00
2019-02-02T05:52:33.066Z,82.20
2019-02-02T05:53:07.583Z,82.30
2019-02-02T05:53:42.170Z,82.40
2019-02-02T05:54:16.722Z,82.60
2019-02-02T05:54:51.249Z,82.80
2019-02-02T05:55:25.771Z,82.80
2019-02-02T05:56:00.267Z,83.00
2019-02-02T05:56:34.804Z,83.00
2019-02-02T05:57:09.491Z,83.20
2019-02-02T05:57:44.088Z,83.10
2019-02-02T05:58:18.662Z,83.30
2019-02-02T05:58:53.187Z,83.30
2019-02-02T05:59:27.750Z,83.50
2019-02-02T06:00:02.330Z,83.80
2019-02-02T06:00:38.540Z,84.00
2019-02-02T06:01:14.751Z,84.00
2019-02-02T06:01:49.327Z,84.00
2019-02-02T06:02:24.056Z,84.00
2019-02-02T06:02:58.615Z,83.90
2019-02-02T06:03:33.555Z,84.00
2019-02-02T06:04:08.088Z,84.00
2019-02-02T06:04:42.621Z,84.00
2019-02-02T06:05:17.193Z,84.20
2019-02-02T06:05:51.820Z,84.20
2019-02-02T06:06:26.319Z,84.20
2019-02-02T06:07:00.915Z,84.20
2019-02-02T06:07:35.426Z,84.20
2019-02-02T06:08:09.942Z,84.30
2019-02-02T06:08:45.163Z,84.30
2019-02-02T06:09:22.523Z,84.40
2019-02-02T06:09:56.078Z,84.50
2019-02-02T06:10:30.667Z,84.60
2019-02-02T06:11:05.220Z,84.60
2019-02-02T06:11:39.722Z,84.50
2019-02-02T06:12:14.248Z,84.60
2019-02-02T06:12:49.494Z,84.60
2019-02-02T06:13:23.989Z,84.20
2019-02-02T06:13:58.528Z,84.60
2019-02-02T06:14:33.243Z,84.60
2019-02-02T06:15:08.288Z,84.60
2019-02-02T06:15:42.822Z,84.60
2019-02-02T06:16:17.354Z,84.70
2019-02-02T06:16:51.880Z,84.60
2019-02-02T06:17:26.437Z,84.70
2019-02-02T06:18:01.250Z,84.80
2019-02-02T06:18:35.925Z,84.90
2019-02-02T06:19:10.461Z,85.10
2019-02-02T06:19:45.013Z,85.10
2019-02-02T06:20:19.581Z,85.30
2019-02-02T06:20:54.097Z,85.40
2019-02-02T06:21:28.641Z,86.30
2019-02-02T06:22:03.204Z,85.70
2019-02-02T06:22:37.745Z,85.80
2019-02-02T06:23:12.392Z,85.60
2019-02-02T06:23:46.990Z,85.50
2019-02-02T06:24:21.489Z,85.50
2019-02-02T06:24:56.012Z,85.60
2019-02-02T06:25:30.592Z,85.60
2019-02-02T06:26:05.261Z,85.50
2019-02-02T06:26:39.770Z,85.50
2019-02-02T06:27:17.229Z,85.40
2019-02-02T06:27:51.733Z,85.40
2019-02-02T06:28:26.268Z,85.40
2019-02-02T06:29:00.775Z,85.30
2019-02-02T06:29:35.298Z,85.40
2019-02-02T06:30:15.716Z,85.30
2019-02-02T06:30:50.327Z,85.40
2019-02-02T06:31:24.983Z,85.40
2019-02-02T06:32:10.973Z,85.50
2019-02-02T06:32:35.846Z,85.50
2019-02-02T06:33:10.362Z,85.50
2019-02-02T06:33:44.868Z,85.20
2019-02-02T06:34:19.448Z,85.70
2019-02-02T06:34:53.963Z,85.60
2019-02-02T06:35:28.477Z,85.70
2019-02-02T06:36:03.621Z,85.70
2019-02-02T06:36:38.359Z,85.90
2019-02-02T06:37:12.855Z,85.90
2019-02-02T06:37:47.438Z,85.80
2019-02-02T06:38:22.009Z,85.80
2019-02-02T06:38:56.644Z,85.70
2019-02-02T06:39:31.213Z,85.60
2019-02-02T06:40:08.657Z,85.50
2019-02-02T06:41:02.545Z,85.50
2019-02-02T06:41:37.049Z,85.50
2019-02-02T06:42:11.657Z,85.40
2019-02-02T06:42:46.408Z,85.40
2019-02-02T06:43:20.925Z,85.40
2019-02-02T06:43:55.490Z,85.40
2019-02-02T06:44:30.110Z,85.70
2019-02-02T06:45:09.250Z,85.80
2019-02-02T06:45:45.911Z,86.00
2019-02-02T06:46:20.471Z,85.90
2019-02-02T06:46:54.960Z,86.00
2019-02-02T06:47:29.468Z,86.10
2019-02-02T06:48:04.614Z,86.10
2019-02-02T06:48:39.189Z,86.10
2019-02-02T06:49:13.692Z,86.10
2019-02-02T06:49:48.221Z,86.20
2019-02-02T06:50:22.734Z,86.30
2019-02-02T06:50:57.238Z,86.40
2019-02-02T06:51:31.764Z,86.40
2019-02-02T06:52:06.364Z,86.40
2019-02-02T06:52:40.979Z,86.50
2019-02-02T06:53:15.556Z,86.60
2019-02-02T06:53:50.081Z,86.70
2019-02-02T06:54:24.585Z,86.80
2019-02-02T06:54:59.098Z,86.80
2019-02-02T06:55:33.589Z,86.90
2019-02-02T06:56:08.108Z,87.00
2019-02-02T06:56:42.645Z,87.00
2019-02-02T06:57:17.180Z,87.00
2019-02-02T06:57:51.716Z,87.00
2019-02-02T06:58:26.281Z,87.10
2019-02-02T06:59:00.780Z,87.10
2019-02-02T06:59:35.390Z,86.90
2019-02-02T07:00:18.451Z,86.90
2019-02-02T07:00:53.034Z,86.90
2019-02-02T07:01:27.625Z,86.90
2019-02-02T07:02:02.261Z,86.80
2019-02-02T07:02:36.854Z,86.80
2019-02-02T07:03:12.519Z,86.80
2019-02-02T07:03:47.013Z,86.70
2019-02-02T07:04:21.516Z,86.70
2019-02-02T07:04:56.131Z,86.70
2019-02-02T07:05:33.620Z,86.80
2019-02-02T07:06:06.926Z,86.90
2019-02-02T07:06:41.485Z,87.00
2019-02-02T07:07:16.430Z,86.90
2019-02-02T07:07:50.962Z,86.80
2019-02-02T07:08:25.594Z,86.90
2019-02-02T07:09:00.161Z,86.90
2019-02-02T07:09:34.651Z,87.10
2019-02-02T07:10:12.366Z,87.20
2019-02-02T07:10:46.911Z,88.00
2019-02-02T07:11:21.466Z,88.00
2019-02-02T07:11:55.970Z,87.70
2019-02-02T07:12:30.567Z,87.80
2019-02-02T07:13:05.444Z,87.90
2019-02-02T07:13:40.083Z,88.00
2019-02-02T07:14:14.581Z,88.10
2019-02-02T07:14:49.090Z,88.20
2019-02-02T07:15:25.971Z,88.30
2019-02-02T07:16:00.534Z,88.50
2019-02-02T07:16:35.175Z,88.60
2019-02-02T07:17:09.688Z,88.70
2019-02-02T07:17:44.210Z,88.90
2019-02-02T07:18:18.783Z,89.00
2019-02-02T07:18:53.289Z,89.10
2019-02-02T07:19:29.208Z,89.10
2019-02-02T07:20:10.184Z,89.20
2019-02-02T07:20:44.761Z,89.10
2019-02-02T07:21:19.264Z,89.30
2019-02-02T07:21:53.775Z,89.30
2019-02-02T07:22:28.345Z,89.30
2019-02-02T07:23:02.912Z,89.40
2019-02-02T07:23:37.470Z,89.30
2019-02-02T07:24:11.983Z,89.40
2019-02-02T07:24:46.558Z,89.40
2019-02-02T07:25:22.866Z,89.40
2019-02-02T07:25:57.987Z,89.20
2019-02-02T07:26:34.534Z,89.20
2019-02-02T07:27:09.108Z,89.00
2019-02-02T07:27:43.616Z,88.80
2019-02-02T07:28:18.126Z,89.00
2019-02-02T07:28:52.636Z,89.00
2019-02-02T07:29:27.201Z,88.80
2019-02-02T07:30:01.709Z,88.70